VK4TJE-9>APRS,WIDE1-1,WIDE1-2,qAO,VK4RDB-1:$GPRMC,233751.000,A,2735.1588,S,15317.1748,E,85.14,282.04,291122,,,A*41 FreeTrak
VK4TJE-9>APRS,WIDE1-1,WIDE1-2,qAO,VK4RDB-1:$GPRMC,233852.000,A,2734.8015,S,15316.5510,E,43.62,290.66,291122,,,A*42
VK4TJE-9>APRS,WIDE1-1,WIDE1-2,qAR,VK4RBT-1:$GPRMC,233953.000,A,2734.7705,S,15317.0357,E,30.50,278.62,291122,,,A*4D
VK4TJE-9>APRS,WIDE1-1,WIDE1-2,qAR,VK4RBT-1:$GPRMC,234053.000,A,2735.0285,S,15317.0250,E,0.00,248.08,291122,,,A*77
VK4TJE-9>APRS,WIDE1-1,WIDE1-2,qAO,VK4RDB-1:$GPRMC,234253.000,A,2734.6129,S,15316.2939,E,40.86,309.94,291122,,,A*4B
VK4TJE-9>APRS,WIDE1-1,WIDE1-2,qAO,VK4RDB-1:$GPRMC,234353.000,A,2734.2844,S,15315.6142,E,41.32,285.65,291122,,,A*4A
VK4TJE-9>APRS,WIDE1-1,WIDE1-2,qAO,VK4RDB-1:$GPRMC,234553.000,A,2734.0947,S,15315.0334,E,0.00,291.44,291122,,,A*7B FreeTrak
VK4TJE-9>APRS,WIDE1-1,WIDE1-2,qAO,VK4RDB-1:$GPRMC,234653.000,A,2734.0248,S,15314.7329,E,35.97,282.52,291122,,,A*4B
VK4TJE-9>APRS,WIDE1-1,WIDE1-2,qAO,VK4RDB-1:$GPRMC,234753.000,A,2733.9268,S,15314.0984,E,18.39,268.85,291122,,,A*49
VK4TJE-9>APRS,WIDE1-1,WIDE1-2,qAR,VK4RBT-1:$GPRMC,234850.000,A,2733.3439,S,15313.9530,E,42.66,343.34,291122,,,A*47
VK4TJE-9>APRS,WIDE1-1,WIDE1-2,qAR,VK4RBT-1:$GPRMC,234950.000,A,2732.8968,S,15313.4017,E,29.20,286.66,291122,,,A*48
VK4TJE-9>APRS,WIDE1-1,WIDE1-2,qAO,VK4RDB-1:$GPRMC,235050.000,A,2732.7198,S,15313.1307,E,37.75,316.30,291122,,,A*4B
VK4TJE-9>APRS,WIDE1-1,WIDE1-2,qAO,VK4RDB-1:$GPRMC,235250.000,A,2732.1098,S,15312.3315,E,28.39,278.96,291122,,,A*4D
VK4TJE-9>APRS,WIDE1-1,WIDE1-2,qAO,VK4RDB-1:$GPRMC,235450.000,A,2731.6354,S,15311.6793,E,0.66,326.48,291122,,,A*79
VK4TJE-9>APRS,WIDE1-1,WIDE1-2,qAO,VK4RDB-1:$GPRMC,235550.000,A,2731.6331,S,15311.6754,E,0.82,328.73,291122,,,A*7C
VK4TJE-9>APRS,WIDE1-1,WIDE1-2,qAR,VK4RAI-3:$GPRMC,235650.000,A,2731.6209,S,15311.6783,E,0.00,256.58,291122,,,A*74
VK4TJE-9>APRS,WIDE1-1,WIDE1-2,qAO,VK4RDB-1:$GPRMC,235750.000,A,2731.6778,S,15311.7304,E,0.00,75.72,291122,,,A*47
VK4TJE-9>APRS,WIDE1-1,WIDE1-2,qAO,VK4RDB-1:$GPRMC,001221.000,A,2731.9207,S,15312.2862,E,4.37,324.48,301122,,,A*78
VK4TJE-9>APRS,WIDE1-1,WIDE1-2,qAO,VK4RDB-1:$GPRMC,002150.000,A,2731.8512,S,15312.3364,E,12.63,65.41,301122,,,A*79 FreeTrak
VK4TJE-9>APRS,WIDE1-1,WIDE1-2,qAO,VK4RDB-1:$GPRMC,002251.000,A,2732.1174,S,15312.4168,E,35.85,103.65,301122,,,A*46
VK4TJE-9>APRS,WIDE1-1,WIDE1-2,qAO,VK4RDB-1:$GPRMC,002352.000,A,2732.2303,S,15312.6143,E,37.15,138.04,301122,,,A*4A
VK4TJE-9>APRS,WIDE1-1,WIDE1-2,qAO,VK4RDB-1:$GPRMC,002453.000,A,2732.7132,S,15313.1379,E,41.37,137.26,301122,,,A*4A
VK4TJE-9>APRS,WIDE1-1,WIDE1-2,qAR,VK4RBT-1:$GPRMC,002554.000,A,2732.8911,S,15313.4063,E,37.53,107.25,301122,,,A*44
VK4TJE-9>APRS,WIDE1-1,WIDE1-2,qAR,VK4RBT-1:$GPRMC,002651.000,A,2733.2913,S,15313.9422,E,41.50,162.01,301122,,,A*40
VK4TJE-9>APRS,WIDE1-1,WIDE1-2,qAO,VK4RDB-1:$GPRMC,002751.000,A,2733.9113,S,15314.1133,E,29.10,123.28,301122,,,A*4C
VK4TJE-9>APRS,WIDE1-1,WIDE1-2,qAO,VK4RDB-1:$GPRMC,002851.000,A,2733.9892,S,15314.6074,E,11.71,100.50,301122,,,A*44
VK4TJE-9>APRS,WIDE1-1,WIDE1-2,qAO,VK4RDB-1:$GPRMC,002951.000,A,2734.0707,S,15314.9999,E,0.00,106.72,301122,,,A*7D FreeTrak
VK4TJE-9>APRS,WIDE1-1,WIDE1-2,qAO,VK4RDB-1:$GPRMC,003051.000,A,2734.2049,S,15315.3510,E,40.92,106.41,301122,,,A*43
VK4TJE-9>APRS,WIDE1-1,WIDE1-2,qAO,VK4RDB-1:$GPRMC,003151.000,A,2734.4484,S,15316.0868,E,33.08,129.80,301122,,,A*44
VK4TJE-9>APRS,WIDE1-1,WIDE1-2,qAO,VK4RDB-1:$GPRMC,003251.000,A,2734.7825,S,15316.5924,E,39.38,107.26,301122,,,A*46
VK4TJE-9>APRS,WIDE1-1,WIDE1-2,qAO,VK4RDB-1:$GPRMC,003351.000,A,2735.0116,S,15316.8816,E,32.73,160.13,301122,,,A*46
VK4TJE-9>APRS,WIDE1-1,WIDE1-2,qAO,VK4RDB-1:$GPRMC,003451.000,A,2735.0287,S,15317.1655,E,30.53,71.47,301122,,,A*7B
VK4TJE-9>APRS,WIDE1-1,WIDE1-2,qAO,VK4RDB-1:$GPRMC,003551.000,A,2735.0311,S,15317.5866,E,0.00,101.87,301122,,,A*71
VK4TJE-9>APRS,WIDE1-1,WIDE1-2,qAO,VK4RDB-1:$GPRMC,003651.000,A,2735.2824,S,15317.7711,E,26.21,145.78,301122,,,A*47
VK4TJE-9>APRS,WIDE1-1,WIDE1-2,qAO,VK4RDB-1:$GPRMC,003751.000,A,2735.4626,S,15317.9655,E,15.98,156.73,301122,,,A*48 FreeTrak
VK4TJE-9>APRS,WIDE1-1,WIDE1-2,qAR,VK4RBT-1:$GPRMC,004547.000,A,2735.1292,S,15318.4862,E,15.20,59.64,301122,,,A*77 FreeTrak
VK4TJE-9>APRS,WIDE1-1,WIDE1-2,qAR,VK4RBT-1:$GPRMC,004648.000,A,2734.9022,S,15318.8708,E,19.48,56.45,301122,,,A*7A
VK4TJE-9>APRS,WIDE1-1,WIDE1-2,qAO,VK4RDB-1:$GPRMC,004749.000,A,2734.7718,S,15318.9362,E,0.00,94.54,301122,,,A*49
VK4TJE-9>APRS,WIDE1-1,WIDE1-2,qAR,VK4RBT-1:$GPRMC,004850.000,A,2734.7717,S,15318.9360,E,0.00,94.54,301122,,,A*43
VK4TJE-9>APRS,WIDE1-1,WIDE1-2,qAO,VK4RDB-1:$GPRMC,004951.000,A,2734.7717,S,15318.9359,E,0.00,94.54,301122,,,A*49
VK4TJE-9>APRS,WIDE1-1,WIDE1-2,qAO,VK4RDB-1:$GPRMC,005051.000,A,2734.7717,S,15318.9359,E,0.00,94.54,301122,,,A*41
VK4TJE-9>APRS,WIDE1-1,WIDE1-2,qAO,VK4RDB-1:$GPRMC,005148.000,A,2734.7716,S,15318.9359,E,0.00,94.54,301122,,,A*49
VK4TJE-9>APRS,WIDE1-1,WIDE1-2,qAO,VK4RDB-1:$GPRMC,005248.000,A,2734.7716,S,15318.9359,E,0.00,94.54,301122,,,A*4A
VK4TJE-9>APRS,WIDE1-1,WIDE1-2,qAO,VK4RDB-1:$GPRMC,005348.000,A,2734.7716,S,15318.9359,E,0.00,94.54,301122,,,A*4B FreeTrak
VK4TJE-9>APRS,WIDE1-1,WIDE1-2,qAO,VK4RDB-1:$GPRMC,005448.000,A,2734.7716,S,15318.9360,E,0.00,94.54,301122,,,A*46
VK4TJE-9>APRS,WIDE1-1,WIDE1-2,qAO,VK4RDB-1:$GPRMC,005548.000,A,2734.7715,S,15318.9360,E,0.00,94.54,301122,,,A*44
VK4TJE-9>APRS,WIDE1-1,WIDE1-2,qAO,VK4RDB-1:$GPRMC,005648.000,A,2734.7714,S,15318.9361,E,0.00,94.54,301122,,,A*47
VK4TJE-9>APRS,WIDE1-1,WIDE1-2,qAO,VK4RDB-1:$GPRMC,005748.000,A,2734.7714,S,15318.9362,E,0.00,94.54,301122,,,A*45
VK4TJE-9>APRS,WIDE1-1,WIDE1-2,qAR,VK4RBT-1:$GPRMC,005848.000,A,2734.7714,S,15318.9363,E,0.00,94.54,301122,,,A*4B
VK4TJE-9>APRS,WIDE1-1,WIDE1-2,qAO,VK4RDB-1:$GPRMC,005948.000,A,2734.7714,S,15318.9364,E,0.00,94.54,301122,,,A*4D
VK4TJE-9>APRS,WIDE1-1,WIDE1-2,qAO,VK4RDB-1:$GPRMC,010048.000,A,2734.7713,S,15318.9365,E,0.00,94.54,301122,,,A*46
VK4TJE-9>APRS,WIDE1-1,WIDE1-2,qAO,VK4MCU-10:$GPRMC,010157.000,A,2734.9211,S,15318.8410,E,26.44,236.96,301122,,,A*44 FreeTrak
VK4TJE-9>APRS,WIDE1-1,WIDE1-2,qAO,VK4MCU-10:$GPRMC,010258.000,A,2734.9766,S,15318.5662,E,16.54,234.61,301122,,,A*4F
VK4TJE-9>APRS,WIDE1-1,WIDE1-2,qAO,VK4RDB-1:$GPRMC,011129.000,A,2735.1070,S,15318.5279,E,21.28,236.24,301122,,,A*40
VK4TJE-9>APRS,WIDE1-1,WIDE1-2,qAO,VK4RDB-1:$GPRMC,011331.000,A,2735.4691,S,15318.0047,E,11.85,58.75,301122,,,A*77